Time;durP1;ratioP1;P1;durP2;ratioP2;P2;SDS_P1;SDS_P2;PMS_P1;PMS_P2;Temp;Humidity;BMP_temperature;BMP_pressure;BME280_temperature;BME280_humidity;BME280_pressure;Samples;Min_cycle;Max_cycle;Signal;HPM_P1;HPM_P2
2023/08/11 00:00:37;;;;;;;7.18;3.22;;;17.70;99.90;;;;;;5046910;28;20071;-71
2023/08/11 00:03:06;;;;;;;8.02;3.17;;;17.60;99.90;;;;;;5047182;28;20145;-71
2023/08/11 00:05:39;;;;;;;12.65;4.00;;;17.60;99.90;;;;;;5046672;28;20139;-71
2023/08/11 00:08:06;;;;;;;7.18;3.35;;;17.60;99.90;;;;;;5030342;28;20052;-70
2023/08/11 00:10:35;;;;;;;7.70;3.25;;;17.60;99.90;;;;;;5046760;28;20048;-71
2023/08/11 00:13:02;;;;;;;6.72;3.40;;;17.50;99.90;;;;;;5045973;28;20112;-71
2023/08/11 00:15:30;;;;;;;7.05;3.47;;;17.50;99.90;;;;;;5046872;28;20041;-71
2023/08/11 00:18:00;;;;;;;9.52;3.67;;;17.50;99.90;;;;;;5046750;28;20477;-71
2023/08/11 00:20:28;;;;;;;10.90;3.30;;;17.40;99.90;;;;;;5045947;28;20041;-71
2023/08/11 00:22:54;;;;;;;7.32;3.80;;;17.40;99.90;;;;;;5047722;28;20073;-70
2023/08/11 00:25:20;;;;;;;9.80;4.10;;;17.40;99.90;;;;;;5028978;28;20140;-71
2023/08/11 00:27:47;;;;;;;10.02;4.57;;;17.30;99.90;;;;;;5046406;28;20406;-71
2023/08/11 00:30:13;;;;;;;7.93;3.78;;;17.30;99.90;;;;;;5046129;28;20144;-71
2023/08/11 00:32:38;;;;;;;11.48;4.40;;;17.30;99.90;;;;;;5046444;28;20453;-71
2023/08/11 00:35:05;;;;;;;6.32;3.25;;;17.30;99.90;;;;;;5029533;28;20056;-71
2023/08/11 00:37:31;;;;;;;8.07;4.32;;;17.20;99.90;;;;;;5044878;28;20053;-71
2023/08/11 00:39:58;;;;;;;8.05;4.38;;;17.20;99.90;;;;;;5045044;28;20716;-71
2023/08/11 00:42:24;;;;;;;11.23;5.65;;;17.10;99.90;;;;;;5045370;28;20043;-71
2023/08/11 00:44:49;;;;;;;9.43;5.70;;;17.10;99.90;;;;;;5029823;28;20053;-71
2023/08/11 00:47:16;;;;;;;9.38;4.70;;;17.10;99.90;;;;;;5047235;28;20788;-70
2023/08/11 00:49:43;;;;;;;8.30;5.30;;;17.00;99.90;;;;;;5045717;28;20059;-70
2023/08/11 00:52:11;;;;;;;12.05;5.28;;;17.00;99.90;;;;;;5047340;28;20149;-70
2023/08/11 00:54:37;;;;;;;8.93;5.00;;;17.00;99.90;;;;;;5047770;28;20060;-70
2023/08/11 00:57:03;;;;;;;7.35;4.90;;;17.00;99.90;;;;;;5046475;28;20048;-70
2023/08/11 00:59:29;;;;;;;9.57;4.50;;;16.90;99.90;;;;;;5045907;28;20114;-73
2023/08/11 01:01:55;;;;;;;9.25;5.63;;;16.90;99.90;;;;;;5041091;28;20076;-73
2023/08/11 01:04:21;;;;;;;11.70;6.03;;;16.90;99.90;;;;;;5045688;28;20131;-73
2023/08/11 01:06:56;;;;;;;8.27;5.10;;;16.90;99.90;;;;;;5025521;28;20111;-73
2023/08/11 01:09:41;;;;;;;8.07;4.88;;;16.80;99.90;;;;;;5046379;28;20028;-73
2023/08/11 01:12:25;;;;;;;9.05;4.90;;;16.80;99.90;;;;;;5045207;28;20867;-73
2023/08/11 01:15:03;;;;;;;8.20;5.32;;;16.80;99.90;;;;;;5045842;28;20049;-73
2023/08/11 01:17:30;;;;;;;7.95;5.15;;;16.80;99.90;;;;;;5046821;28;20041;-73
2023/08/11 01:19:56;;;;;;;9.20;4.70;;;16.70;99.90;;;;;;5072405;28;20044;-73
2023/08/11 01:22:28;;;;;;;7.45;4.65;;;16.70;99.90;;;;;;5059051;28;20052;-74
2023/08/11 01:24:55;;;;;;;11.95;4.85;;;16.70;99.90;;;;;;5071084;28;20047;-73
2023/08/11 01:27:21;;;;;;;9.38;4.95;;;16.70;99.90;;;;;;5044017;28;20557;-73
2023/08/11 01:29:47;;;;;;;10.88;4.70;;;16.50;99.90;;;;;;5046758;28;20115;-73
2023/08/11 01:32:14;;;;;;;9.52;5.50;;;16.60;99.90;;;;;;5026945;28;20092;-73
2023/08/11 01:34:39;;;;;;;11.02;5.70;;;16.60;99.90;;;;;;5045222;28;20141;-73
2023/08/11 01:37:05;;;;;;;11.68;5.53;;;16.60;99.90;;;;;;5027444;28;20144;-73
2023/08/11 01:39:34;;;;;;;8.98;4.82;;;16.60;99.90;;;;;;5044164;28;20068;-73
2023/08/11 01:42:01;;;;;;;8.60;5.32;;;16.60;99.90;;;;;;5077388;28;20091;-72
2023/08/11 01:44:27;;;;;;;8.25;4.93;;;16.50;99.90;;;;;;5036905;28;20114;-73
2023/08/11 01:46:55;;;;;;;10.00;5.22;;;16.50;99.90;;;;;;5078092;28;20071;-73
2023/08/11 01:49:26;;;;;;;8.90;6.25;;;16.50;99.90;;;;;;5028571;28;20049;-73
2023/08/11 01:51:53;;;;;;;11.82;6.47;;;16.50;99.90;;;;;;5028184;28;20131;-73
2023/08/11 01:54:19;;;;;;;10.40;6.00;;;16.40;99.90;;;;;;5059415;28;20124;-73
2023/08/11 01:56:46;;;;;;;10.93;5.68;;;16.40;99.90;;;;;;5044430;28;20602;-73
2023/08/11 01:59:14;;;;;;;9.40;5.97;;;16.40;99.90;;;;;;5027877;28;20040;-73
2023/08/11 02:01:40;;;;;;;8.90;5.15;;;16.40;99.90;;;;;;5044958;28;20078;-73
2023/08/11 02:04:08;;;;;;;11.75;5.65;;;16.40;99.90;;;;;;5044315;28;20716;-73
2023/08/11 02:06:36;;;;;;;9.02;5.68;;;16.40;99.90;;;;;;5044973;28;20688;-72
2023/08/11 02:09:04;;;;;;;12.30;5.75;;;16.30;99.90;;;;;;5044150;28;20091;-73
2023/08/11 02:11:30;;;;;;;10.48;5.20;;;16.30;99.90;;;;;;5045133;28;20451;-73
2023/08/11 02:13:56;;;;;;;13.20;6.90;;;16.30;99.90;;;;;;5048697;28;20549;-73
2023/08/11 02:16:22;;;;;;;11.15;6.68;;;16.30;99.90;;;;;;5049110;28;20124;-73
2023/08/11 02:18:47;;;;;;;12.27;7.00;;;16.30;99.90;;;;;;5062577;28;20125;-73
2023/08/11 02:21:13;;;;;;;11.73;6.68;;;16.20;99.90;;;;;;5044750;28;20056;-73
2023/08/11 02:23:39;;;;;;;13.88;7.70;;;16.20;99.90;;;;;;5038972;28;20092;-73
2023/08/11 02:26:05;;;;;;;14.00;7.70;;;16.20;99.90;;;;;;5070293;28;20049;-70
2023/08/11 02:28:31;;;;;;;12.13;7.38;;;16.20;99.90;;;;;;5046282;28;20505;-71
2023/08/11 02:30:57;;;;;;;11.52;7.32;;;16.20;99.90;;;;;;5047829;28;20055;-70
2023/08/11 02:33:23;;;;;;;11.50;7.57;;;16.10;99.90;;;;;;5081849;28;20048;-70
2023/08/11 02:35:48;;;;;;;15.45;8.48;;;16.10;99.90;;;;;;5047710;28;20347;-71
2023/08/11 02:38:15;;;;;;;12.15;7.65;;;16.00;99.90;;;;;;5049663;28;20040;-71
2023/08/11 02:40:40;;;;;;;17.02;8.90;;;16.10;99.90;;;;;;5021346;28;20040;-70
2023/08/11 02:43:07;;;;;;;14.70;8.95;;;16.00;99.90;;;;;;5047356;28;20045;-71
2023/08/11 02:45:33;;;;;;;14.82;9.43;;;16.00;99.90;;;;;;5048593;28;20088;-70
2023/08/11 02:47:59;;;;;;;22.65;9.82;;;16.00;99.90;;;;;;5048229;28;20055;-71
2023/08/11 02:50:24;;;;;;;14.35;9.63;;;16.00;99.90;;;;;;5044964;28;20040;-70
2023/08/11 02:52:50;;;;;;;15.48;10.60;;;15.90;99.90;;;;;;5047188;28;20061;-71
2023/08/11 02:55:16;;;;;;;14.20;10.60;;;15.90;99.90;;;;;;5047612;28;20116;-70
2023/08/11 02:57:42;;;;;;;13.80;10.18;;;15.90;99.90;;;;;;5048319;28;20083;-71
2023/08/11 03:00:13;;;;;;;13.93;10.40;;;15.90;99.90;;;;;;5046045;28;20069;-70
2023/08/11 03:02:40;;;;;;;16.38;10.80;;;15.90;99.90;;;;;;5047631;28;20099;-70
2023/08/11 03:05:09;;;;;;;14.75;10.32;;;15.90;99.90;;;;;;5046018;28;20136;-70
2023/08/11 03:07:35;;;;;;;16.38;10.80;;;15.80;99.90;;;;;;5047342;28;20052;-71
2023/08/11 03:10:01;;;;;;;14.65;10.80;;;15.80;99.90;;;;;;5030376;28;20087;-71
2023/08/11 03:12:28;;;;;;;15.25;9.85;;;15.80;99.90;;;;;;5044002;28;21144;-71
2023/08/11 03:14:54;;;;;;;13.93;9.32;;;15.80;99.90;;;;;;5047884;28;20616;-71
2023/08/11 03:17:20;;;;;;;17.27;10.88;;;15.80;99.90;;;;;;5029752;28;20409;-71
2023/08/11 03:19:46;;;;;;;14.45;10.30;;;15.80;99.90;;;;;;5043478;28;20045;-71
2023/08/11 03:22:11;;;;;;;16.75;11.73;;;15.70;99.90;;;;;;5045493;28;20171;-71
2023/08/11 03:24:37;;;;;;;17.77;9.80;;;15.80;99.90;;;;;;5046286;28;20118;-70
2023/08/11 03:27:03;;;;;;;14.25;10.32;;;15.80;99.90;;;;;;5046391;28;20102;-71
2023/08/11 03:29:29;;;;;;;16.52;10.25;;;15.70;99.90;;;;;;5046268;28;20190;-70
2023/08/11 03:31:55;;;;;;;14.73;10.43;;;15.70;99.90;;;;;;5046052;28;20603;-70
2023/08/11 03:34:21;;;;;;;16.80;10.15;;;15.70;99.90;;;;;;5044891;28;20094;-70
2023/08/11 03:36:46;;;;;;;13.57;9.52;;;15.70;99.90;;;;;;5046116;28;20037;-70
2023/08/11 03:39:12;;;;;;;18.80;10.43;;;15.70;99.90;;;;;;5047736;28;20549;-70
2023/08/11 03:41:38;;;;;;;15.38;9.82;;;15.70;99.90;;;;;;5045368;28;20048;-71
2023/08/11 03:44:04;;;;;;;12.55;9.45;;;15.70;99.90;;;;;;5046681;28;20051;-70
2023/08/11 03:46:30;;;;;;;19.08;10.77;;;15.70;99.90;;;;;;5029612;28;20053;-70
2023/08/11 03:48:57;;;;;;;17.23;9.85;;;15.70;99.90;;;;;;5044352;28;20033;-71
2023/08/11 03:51:22;;;;;;;22.42;11.25;;;15.70;99.90;;;;;;5045496;28;20037;-71
2023/08/11 03:53:48;;;;;;;16.20;10.93;;;15.70;99.90;;;;;;5045541;28;20493;-70
2023/08/11 03:56:14;;;;;;;16.02;11.32;;;15.60;99.90;;;;;;5028665;28;20462;-70
2023/08/11 03:58:39;;;;;;;14.48;9.43;;;15.60;99.90;;;;;;5045591;28;20134;-70
2023/08/11 04:01:05;;;;;;;18.25;10.45;;;15.60;99.90;;;;;;5023421;28;20590;-70
2023/08/11 04:03:31;;;;;;;17.00;10.35;;;15.60;99.90;;;;;;5042336;28;20455;-70
2023/08/11 04:05:58;;;;;;;14.35;9.90;;;15.60;99.90;;;;;;5044613;28;20455;-69
2023/08/11 04:08:25;;;;;;;18.25;11.60;;;15.60;99.90;;;;;;5043673;28;20080;-70
2023/08/11 04:10:52;;;;;;;17.50;10.45;;;15.60;99.90;;;;;;5045539;28;20072;-70
2023/08/11 04:13:17;;;;;;;16.35;10.23;;;15.60;99.90;;;;;;5045128;28;20849;-70
2023/08/11 04:15:45;;;;;;;16.30;11.10;;;15.60;99.90;;;;;;5047018;28;20040;-70
2023/08/11 04:18:12;;;;;;;14.27;10.23;;;15.60;99.90;;;;;;5043356;28;20045;-70
2023/08/11 04:20:38;;;;;;;14.20;9.90;;;15.60;99.90;;;;;;5024486;28;20075;-70
2023/08/11 04:23:04;;;;;;;16.27;11.10;;;15.50;99.90;;;;;;5037887;28;20037;-70
2023/08/11 04:25:29;;;;;;;15.45;10.32;;;15.50;99.90;;;;;;5039274;28;20059;-70
2023/08/11 04:27:55;;;;;;;16.65;11.38;;;15.60;99.90;;;;;;5047172;28;20132;-70
2023/08/11 04:30:22;;;;;;;14.60;10.63;;;15.60;99.90;;;;;;5043709;28;20401;-70
2023/08/11 04:32:48;;;;;;;18.13;10.65;;;15.60;99.90;;;;;;5027824;28;20629;-70
2023/08/11 04:35:14;;;;;;;15.60;10.15;;;15.60;99.90;;;;;;5044045;28;20105;-70
2023/08/11 04:37:41;;;;;;;16.20;10.80;;;15.50;99.90;;;;;;5046241;28;20057;-70
2023/08/11 04:40:10;;;;;;;16.35;10.57;;;15.50;99.90;;;;;;5043066;28;20045;-71
2023/08/11 04:42:46;;;;;;;15.20;10.25;;;15.50;99.90;;;;;;5045955;28;20041;-70
2023/08/11 04:45:14;;;;;;;18.75;10.73;;;15.50;99.90;;;;;;5046265;28;20044;-71
2023/08/11 04:47:40;;;;;;;13.52;9.98;;;15.60;99.90;;;;;;5028349;28;20075;-70
2023/08/11 04:50:09;;;;;;;16.15;11.23;;;15.50;99.90;;;;;;5026656;28;20068;-70
2023/08/11 04:52:35;;;;;;;16.00;10.48;;;15.60;99.90;;;;;;5044655;28;20076;-70
2023/08/11 04:55:01;;;;;;;14.65;9.85;;;15.50;99.90;;;;;;5027733;28;20443;-71
2023/08/11 04:57:26;;;;;;;17.30;9.70;;;15.60;99.90;;;;;;5041135;28;20122;-71
2023/08/11 04:59:52;;;;;;;12.70;9.82;;;15.60;99.90;;;;;;5031599;28;20071;-71
2023/08/11 05:02:18;;;;;;;15.45;10.13;;;15.60;99.90;;;;;;5035551;28;20049;-71
2023/08/11 05:04:44;;;;;;;16.45;9.93;;;15.60;99.90;;;;;;5040097;28;20057;-71
2023/08/11 05:07:09;;;;;;;14.82;9.38;;;15.60;99.90;;;;;;5043823;28;20379;-71
2023/08/11 05:09:35;;;;;;;13.38;9.75;;;15.70;99.90;;;;;;5045785;28;20052;-71
2023/08/11 05:12:02;;;;;;;16.10;9.63;;;15.70;99.90;;;;;;5042973;28;20045;-71
2023/08/11 05:14:27;;;;;;;14.95;8.70;;;15.80;99.90;;;;;;5045673;28;20044;-71
2023/08/11 05:16:53;;;;;;;13.63;9.20;;;15.80;99.90;;;;;;5043912;28;20041;-71
2023/08/11 05:19:19;;;;;;;15.10;9.40;;;15.80;99.90;;;;;;5041959;28;20568;-71
2023/08/11 05:21:45;;;;;;;16.15;8.63;;;15.90;99.90;;;;;;5044311;28;20051;-71
2023/08/11 05:24:10;;;;;;;12.55;7.82;;;16.10;99.90;;;;;;5041307;28;20033;-71
2023/08/11 05:26:37;;;;;;;11.90;8.77;;;16.10;99.90;;;;;;5044485;28;20083;-71
2023/08/11 05:29:02;;;;;;;11.05;8.05;;;16.20;99.90;;;;;;5043682;28;20124;-71
2023/08/11 05:31:28;;;;;;;13.05;8.55;;;16.20;99.90;;;;;;5043418;28;20045;-71
2023/08/11 05:33:55;;;;;;;13.38;8.05;;;16.20;99.90;;;;;;5043270;28;20037;-71
2023/08/11 05:36:21;;;;;;;13.10;8.68;;;16.20;99.90;;;;;;5044457;28;20045;-70
2023/08/11 05:38:47;;;;;;;13.20;7.88;;;16.20;99.90;;;;;;5045359;28;20045;-71
2023/08/11 05:41:13;;;;;;;13.82;8.00;;;16.20;99.90;;;;;;5044189;28;20069;-71
2023/08/11 05:43:38;;;;;;;12.40;8.00;;;16.30;99.90;;;;;;5017926;28;20045;-71
2023/08/11 05:46:07;;;;;;;12.90;7.55;;;16.30;99.90;;;;;;5039745;28;20737;-71
2023/08/11 05:48:36;;;;;;;13.07;8.00;;;16.30;99.90;;;;;;5038691;28;20770;-71
2023/08/11 05:51:04;;;;;;;12.60;7.55;;;16.40;99.90;;;;;;5039305;28;21553;-71
2023/08/11 05:53:33;;;;;;;13.60;8.38;;;16.40;99.90;;;;;;5034480;28;20044;-71
2023/08/11 05:55:59;;;;;;;13.00;7.32;;;16.50;99.90;;;;;;5038458;28;20045;-71
2023/08/11 05:58:25;;;;;;;11.65;6.93;;;16.50;99.90;;;;;;5039532;28;20045;-71
2023/08/11 06:00:51;;;;;;;10.68;6.85;;;16.50;99.90;;;;;;5043500;28;20048;-71
2023/08/11 06:03:17;;;;;;;13.13;7.00;;;16.50;99.90;;;;;;5045592;28;20131;-70
2023/08/11 06:05:42;;;;;;;11.93;6.55;;;16.60;99.90;;;;;;5047664;28;20045;-71
2023/08/11 06:08:09;;;;;;;11.85;6.78;;;16.60;99.90;;;;;;5048007;28;20077;-71
2023/08/11 06:10:34;;;;;;;10.70;6.88;;;16.60;99.90;;;;;;5048256;28;20055;-71
2023/08/11 06:13:00;;;;;;;10.30;6.32;;;16.70;99.90;;;;;;5047170;28;20045;-71
2023/08/11 06:15:26;;;;;;;10.63;6.53;;;16.80;99.90;;;;;;5048062;28;20072;-71
2023/08/11 06:17:52;;;;;;;10.70;6.70;;;16.80;99.90;;;;;;5048895;28;20119;-70
2023/08/11 06:20:18;;;;;;;11.77;6.03;;;16.80;99.90;;;;;;5041346;28;20459;-71
2023/08/11 06:22:47;;;;;;;11.20;6.47;;;16.90;99.90;;;;;;5048260;28;20041;-70
2023/08/11 06:25:16;;;;;;;12.07;5.90;;;16.90;99.90;;;;;;5042751;28;20043;-71
2023/08/11 06:27:45;;;;;;;11.82;6.00;;;17.00;99.90;;;;;;5046207;28;20060;-71
2023/08/11 06:30:11;;;;;;;12.77;6.30;;;17.00;99.90;;;;;;5043844;28;20037;-71
2023/08/11 06:32:37;;;;;;;11.00;6.45;;;17.10;99.90;;;;;;5024738;28;20421;-71
2023/08/11 06:35:06;;;;;;;8.38;5.60;;;17.10;99.90;;;;;;5044706;28;20127;-71
2023/08/11 06:37:31;;;;;;;11.43;5.82;;;17.20;99.90;;;;;;5075747;28;20099;-73
2023/08/11 06:39:58;;;;;;;8.30;5.45;;;17.30;99.90;;;;;;5046659;28;20438;-74
2023/08/11 06:42:24;;;;;;;11.27;5.45;;;17.40;99.90;;;;;;5030301;28;20032;-73
2023/08/11 06:44:51;;;;;;;8.57;5.55;;;17.50;99.90;;;;;;5045428;28;20061;-74
2023/08/11 06:47:16;;;;;;;9.68;5.35;;;17.60;99.90;;;;;;5029252;28;20513;-73
2023/08/11 06:49:42;;;;;;;7.90;5.20;;;17.60;99.90;;;;;;5043488;28;20107;-74
2023/08/11 06:52:08;;;;;;;10.88;5.38;;;17.70;99.90;;;;;;5047213;28;20041;-74
2023/08/11 06:54:34;;;;;;;11.50;5.70;;;17.70;99.90;;;;;;5041606;28;20406;-74
2023/08/11 06:57:03;;;;;;;9.70;5.30;;;17.80;99.90;;;;;;5027977;28;20659;-74
2023/08/11 06:59:31;;;;;;;9.40;4.70;;;17.90;99.90;;;;;;5044824;28;20045;-74
2023/08/11 07:01:57;;;;;;;9.75;4.90;;;18.00;99.90;;;;;;5046798;28;20124;-74
2023/08/11 07:04:23;;;;;;;7.90;4.95;;;18.00;99.90;;;;;;5047651;28;20135;-74
2023/08/11 07:06:49;;;;;;;10.70;5.10;;;18.00;99.90;;;;;;5046790;28;20650;-74
2023/08/11 07:09:15;;;;;;;9.25;5.60;;;18.00;99.90;;;;;;5026949;28;20375;-74
2023/08/11 07:11:41;;;;;;;8.20;5.28;;;18.10;99.90;;;;;;5038107;28;20140;-74
2023/08/11 07:14:06;;;;;;;10.00;4.88;;;18.20;99.90;;;;;;5040532;28;20159;-74
2023/08/11 07:16:32;;;;;;;13.32;6.03;;;18.20;99.90;;;;;;5039194;28;20490;-74
2023/08/11 07:18:58;;;;;;;10.13;5.22;;;18.30;99.90;;;;;;5069636;28;20461;-73
2023/08/11 07:21:24;;;;;;;8.00;5.38;;;18.40;99.90;;;;;;5036822;28;20041;-73
2023/08/11 07:23:50;;;;;;;9.27;5.85;;;18.40;99.90;;;;;;5043595;28;20065;-73
2023/08/11 07:26:16;;;;;;;10.05;5.53;;;18.50;99.90;;;;;;5037485;28;20041;-74
2023/08/11 07:28:41;;;;;;;11.43;5.65;;;18.60;99.90;;;;;;5038342;28;20375;-74
2023/08/11 07:31:07;;;;;;;10.40;5.30;;;18.70;99.90;;;;;;5052074;28;20043;-75
2023/08/11 07:33:33;;;;;;;9.02;4.78;;;18.80;99.90;;;;;;5036477;28;20049;-74
2023/08/11 07:35:59;;;;;;;9.35;5.40;;;18.90;99.90;;;;;;5035175;28;20060;-75
2023/08/11 07:38:24;;;;;;;8.43;4.88;;;19.00;99.90;;;;;;5020367;28;20705;-75
2023/08/11 07:40:52;;;;;;;9.73;4.88;;;19.20;99.90;;;;;;5037887;28;20063;-75
2023/08/11 07:43:18;;;;;;;8.35;4.90;;;19.30;99.90;;;;;;5042468;28;20044;-73
2023/08/11 07:45:43;;;;;;;10.30;5.07;;;19.40;99.90;;;;;;5048272;28;20099;-72
2023/08/11 07:48:09;;;;;;;11.20;4.40;;;19.60;99.90;;;;;;5043847;28;20044;-72
2023/08/11 07:50:38;;;;;;;10.23;4.32;;;19.60;99.90;;;;;;5022693;28;20038;-72
2023/08/11 07:53:04;;;;;;;9.52;4.05;;;19.80;99.90;;;;;;5045695;28;20048;-72
2023/08/11 07:55:30;;;;;;;8.65;3.90;;;19.90;99.90;;;;;;5033338;28;20045;-72
2023/08/11 07:57:56;;;;;;;9.65;4.43;;;20.00;99.90;;;;;;5032651;28;20044;-72
2023/08/11 08:00:25;;;;;;;8.32;4.15;;;20.20;99.90;;;;;;5040020;28;20493;-73
2023/08/11 08:02:55;;;;;;;7.80;3.70;;;20.30;99.90;;;;;;5067698;28;20050;-72
2023/08/11 08:05:21;;;;;;;12.07;3.70;;;20.40;99.90;;;;;;5017440;28;20194;-73
2023/08/11 08:07:47;;;;;;;6.43;3.50;;;20.60;99.90;;;;;;5033794;28;20064;-72
2023/08/11 08:10:14;;;;;;;9.57;3.10;;;20.70;99.90;;;;;;5038644;28;20510;-76
2023/08/11 08:12:42;;;;;;;9.93;4.03;;;20.80;99.90;;;;;;5033678;28;20124;-73
2023/08/11 08:15:10;;;;;;;7.32;3.53;;;21.00;99.90;;;;;;5049359;28;20048;-73
2023/08/11 08:17:36;;;;;;;7.28;3.60;;;21.10;99.90;;;;;;5027346;28;21447;-74
2023/08/11 08:20:05;;;;;;;8.43;3.50;;;21.20;99.90;;;;;;5031066;28;20410;-73
2023/08/11 08:22:32;;;;;;;8.90;4.00;;;21.30;99.90;;;;;;5037695;28;20041;-73
2023/08/11 08:24:58;;;;;;;9.57;3.38;;;21.40;99.90;;;;;;5064821;28;20052;-78
2023/08/11 08:27:24;;;;;;;9.63;3.80;;;21.50;99.90;;;;;;5035622;28;20118;-79
2023/08/11 08:29:52;;;;;;;12.32;3.70;;;21.60;99.90;;;;;;5019683;28;20029;-77
2023/08/11 08:32:18;;;;;;;6.78;3.20;;;21.70;99.90;;;;;;5032176;28;20041;-79
2023/08/11 08:34:44;;;;;;;7.18;3.15;;;21.80;99.90;;;;;;5030510;28;20056;-79
2023/08/11 08:37:10;;;;;;;8.35;3.30;;;21.80;99.90;;;;;;5025827;28;20055;-80
2023/08/11 08:39:36;;;;;;;10.27;3.20;;;22.00;99.90;;;;;;5039345;28;20043;-80
2023/08/11 08:42:03;;;;;;;7.95;3.28;;;22.00;99.90;;;;;;5037023;28;20049;-79
2023/08/11 08:44:30;;;;;;;7.70;2.92;;;22.10;99.90;;;;;;5038676;28;20137;-79
2023/08/11 08:46:58;;;;;;;6.03;2.97;;;22.20;99.90;;;;;;5040274;28;20041;-79
2023/08/11 08:49:26;;;;;;;7.15;2.78;;;22.30;99.90;;;;;;5041626;28;20037;-79
2023/08/11 08:51:52;;;;;;;10.05;3.10;;;22.40;99.90;;;;;;5042903;28;20064;-80
2023/08/11 08:54:19;;;;;;;8.50;3.08;;;22.40;99.90;;;;;;5039306;28;20056;-79
2023/08/11 08:56:45;;;;;;;7.25;2.80;;;22.50;99.90;;;;;;5040905;28;20041;-77
2023/08/11 08:59:11;;;;;;;10.13;2.58;;;22.60;99.90;;;;;;5034620;28;20476;-79
2023/08/11 09:01:41;;;;;;;15.52;6.82;;;22.70;99.90;;;;;;5036717;28;20037;-76
2023/08/11 09:04:07;;;;;;;6.95;3.38;;;22.80;99.90;;;;;;5027408;28;20533;-76
2023/08/11 09:06:34;;;;;;;13.50;5.25;;;22.90;99.90;;;;;;5031573;28;20059;-77
2023/08/11 09:09:00;;;;;;;11.70;4.97;;;23.00;99.90;;;;;;5037737;28;20095;-77
2023/08/11 09:11:26;;;;;;;16.05;4.75;;;23.10;99.90;;;;;;5037828;28;20033;-79
2023/08/11 09:13:52;;;;;;;26.80;10.05;;;23.10;99.90;;;;;;5022903;28;20059;-80
2023/08/11 09:16:23;;;;;;;8.90;3.28;;;23.20;99.90;;;;;;5040961;28;20048;-79
2023/08/11 09:18:49;;;;;;;8.50;3.05;;;23.30;99.90;;;;;;5038472;28;20049;-79
2023/08/11 09:21:16;;;;;;;7.53;2.60;;;23.30;99.90;;;;;;5036955;28;20564;-80
2023/08/11 09:23:43;;;;;;;7.70;3.10;;;23.40;99.90;;;;;;5042244;28;20048;-79
2023/08/11 09:26:09;;;;;;;11.40;3.17;;;23.50;99.90;;;;;;5037253;28;20036;-78
2023/08/11 09:28:35;;;;;;;6.60;2.63;;;23.60;99.90;;;;;;5035987;28;20131;-79
2023/08/11 09:31:01;;;;;;;6.95;2.85;;;23.70;99.90;;;;;;5033283;28;20405;-75
2023/08/11 09:33:30;;;;;;;6.95;3.13;;;23.70;99.90;;;;;;5032073;28;20048;-77
2023/08/11 09:35:56;;;;;;;6.45;2.53;;;23.70;99.90;;;;;;5074074;28;20518;-78
2023/08/11 09:38:25;;;;;;;6.57;2.47;;;23.80;99.90;;;;;;5056672;28;20037;-73
2023/08/11 09:40:50;;;;;;;5.38;2.33;;;23.90;99.90;;;;;;5041263;28;20516;-73
2023/08/11 09:43:16;;;;;;;6.00;2.33;;;23.90;99.90;;;;;;5065074;28;20050;-73
2023/08/11 09:45:42;;;;;;;6.55;2.67;;;24.00;99.90;;;;;;5040614;28;20053;-73
2023/08/11 09:48:08;;;;;;;5.25;2.25;;;24.00;99.90;;;;;;5074096;28;20048;-73
2023/08/11 09:50:35;;;;;;;8.07;2.67;;;24.10;99.90;;;;;;5038111;28;20049;-74
2023/08/11 09:53:04;;;;;;;10.20;2.90;;;24.20;99.90;;;;;;5039152;28;20049;-74
2023/08/11 09:55:32;;;;;;;7.82;2.53;;;24.20;99.90;;;;;;5032654;28;20144;-73
2023/08/11 09:58:01;;;;;;;9.63;2.58;;;24.20;99.90;;;;;;5055269;28;20178;-74
2023/08/11 10:00:30;;;;;;;10.35;2.60;;;24.30;99.90;;;;;;5044409;28;20148;-73
2023/08/11 10:03:00;;;;;;;6.93;2.40;;;24.30;99.90;;;;;;5058195;28;20053;-74
2023/08/11 10:05:28;;;;;;;6.38;2.50;;;24.40;99.90;;;;;;5035023;28;20807;-72
2023/08/11 10:07:56;;;;;;;5.13;2.10;;;24.40;99.90;;;;;;5047312;28;20460;-72
2023/08/11 10:10:23;;;;;;;6.38;2.60;;;24.50;99.90;;;;;;5011657;28;20048;-73
2023/08/11 10:13:30;;;;;;;7.97;2.40;;;24.60;99.90;;;;;;5016639;28;20183;-71
2023/08/11 10:15:59;;;;;;;9.77;2.85;;;24.60;99.90;;;;;;4998177;28;20592;-71
2023/08/11 10:18:26;;;;;;;7.07;2.40;;;24.80;99.90;;;;;;5032291;28;20103;-71
2023/08/11 10:20:53;;;;;;;8.60;2.70;;;24.80;99.90;;;;;;5036882;28;20736;-71
2023/08/11 10:23:19;;;;;;;16.38;4.38;;;24.90;99.90;;;;;;5058846;28;20045;-72
2023/08/11 10:25:49;;;;;;;8.23;2.50;;;24.90;99.90;;;;;;5039589;28;20072;-72
2023/08/11 10:28:16;;;;;;;6.73;2.47;;;25.00;99.90;;;;;;5013243;28;20041;-70
2023/08/11 10:30:42;;;;;;;4.60;2.38;;;25.00;99.90;;;;;;5035777;28;20198;-72
2023/08/11 10:33:09;;;;;;;5.88;2.33;;;25.00;99.90;;;;;;5020330;28;20120;-71
2023/08/11 10:35:56;;;;;;;5.65;2.45;;;25.10;99.90;;;;;;5022285;28;20048;-72
2023/08/11 10:38:25;;;;;;;5.93;2.20;;;25.20;99.90;;;;;;5041132;28;20051;-73
2023/08/11 10:41:00;;;;;;;7.07;2.45;;;25.20;99.90;;;;;;5041573;28;20521;-73
2023/08/11 10:43:41;;;;;;;6.45;2.53;;;25.30;99.90;;;;;;5031579;28;20163;-77
2023/08/11 10:46:27;;;;;;;6.65;2.25;;;25.30;99.90;;;;;;5039491;28;20645;-76
2023/08/11 10:48:57;;;;;;;6.57;2.30;;;25.40;99.90;;;;;;5047473;28;20120;-77
2023/08/11 10:51:39;;;;;;;6.55;2.47;;;25.30;99.90;;;;;;5043620;28;20700;-77
2023/08/11 10:54:11;;;;;;;6.32;2.35;;;25.40;99.90;;;;;;5042427;28;20422;-78
2023/08/11 10:56:45;;;;;;;7.75;2.10;;;25.50;99.90;;;;;;5041219;28;20132;-77
2023/08/11 10:59:19;;;;;;;6.03;2.63;;;25.60;99.90;;;;;;5037517;28;20418;-77
2023/08/11 11:01:47;;;;;;;6.85;2.17;;;25.60;99.90;;;;;;5035197;28;20155;-76
2023/08/11 11:04:14;;;;;;;7.68;2.67;;;25.60;99.90;;;;;;5047319;28;20084;-78
2023/08/11 11:06:43;;;;;;;7.03;2.05;;;25.70;99.90;;;;;;5042119;28;20100;-77
2023/08/11 11:09:10;;;;;;;5.17;2.57;;;25.70;99.90;;;;;;5043928;28;20095;-77
2023/08/11 11:11:39;;;;;;;5.30;2.08;;;25.80;99.90;;;;;;5044397;28;20455;-77
2023/08/11 11:14:06;;;;;;;5.45;2.45;;;25.80;99.90;;;;;;5036081;28;20107;-78
2023/08/11 11:16:32;;;;;;;6.32;2.63;;;25.90;99.90;;;;;;5076627;28;20056;-77
2023/08/11 11:19:03;;;;;;;9.05;2.33;;;25.90;99.90;;;;;;5051785;28;20100;-77
2023/08/11 11:21:30;;;;;;;4.85;2.15;;;25.90;99.90;;;;;;5040803;28;20059;-77
2023/08/11 11:23:56;;;;;;;6.50;2.10;;;25.90;99.90;;;;;;5048943;28;20055;-76
2023/08/11 11:26:30;;;;;;;8.63;2.28;;;25.90;99.90;;;;;;5039735;28;20045;-77
2023/08/11 11:28:58;;;;;;;5.65;2.30;;;26.00;99.90;;;;;;5050886;28;20037;-77
2023/08/11 11:31:26;;;;;;;4.72;1.98;;;26.10;99.90;;;;;;5033153;28;20048;-78
2023/08/11 11:33:52;;;;;;;8.98;2.10;;;26.20;99.90;;;;;;5042335;28;20047;-78
2023/08/11 11:36:19;;;;;;;6.35;2.17;;;26.20;99.90;;;;;;5041272;28;20048;-77
2023/08/11 11:38:46;;;;;;;6.43;2.20;;;26.30;99.90;;;;;;5038906;28;20587;-78
2023/08/11 11:41:17;;;;;;;7.50;2.08;;;26.30;99.90;;;;;;5039537;28;20068;-77
2023/08/11 11:43:50;;;;;;;4.93;2.20;;;26.30;99.90;;;;;;5028242;28;20049;-79
2023/08/11 11:46:20;;;;;;;5.82;2.30;;;26.40;99.90;;;;;;5037842;28;20124;-78
2023/08/11 11:48:50;;;;;;;6.80;2.42;;;26.40;99.90;;;;;;5040566;28;20051;-77
2023/08/11 11:51:22;;;;;;;5.53;1.92;;;26.50;99.90;;;;;;5038365;28;20045;-77
2023/08/11 11:53:51;;;;;;;5.90;2.35;;;26.40;99.90;;;;;;5040669;28;20045;-78
2023/08/11 11:56:18;;;;;;;7.53;2.30;;;26.30;99.90;;;;;;5038321;28;20544;-78
2023/08/11 11:58:46;;;;;;;6.82;2.10;;;26.30;99.90;;;;;;5040384;28;20080;-78
2023/08/11 12:01:14;;;;;;;5.60;2.08;;;26.30;99.90;;;;;;5044054;28;20044;-77
2023/08/11 12:03:41;;;;;;;6.75;2.60;;;26.30;99.90;;;;;;5043615;28;20049;-78
2023/08/11 12:06:10;;;;;;;4.78;1.88;;;26.40;99.90;;;;;;5046787;28;20513;-78
2023/08/11 12:08:35;;;;;;;7.43;2.05;;;26.40;99.90;;;;;;5076058;28;20490;-78
2023/08/11 12:11:02;;;;;;;8.02;2.33;;;26.50;99.90;;;;;;5042973;28;20094;-78
2023/08/11 12:13:30;;;;;;;5.85;2.13;;;26.50;99.90;;;;;;5043699;28;20450;-78
2023/08/11 12:15:57;;;;;;;6.65;2.08;;;26.60;99.90;;;;;;5036766;28;20061;-78
2023/08/11 12:18:24;;;;;;;10.00;2.25;;;26.70;99.90;;;;;;5023062;28;20869;-77
2023/08/11 12:20:50;;;;;;;6.80;2.40;;;26.70;99.90;;;;;;5035075;28;20049;-77
2023/08/11 12:23:17;;;;;;;5.45;2.28;;;26.80;99.90;;;;;;5039046;28;20041;-78
2023/08/11 12:25:42;;;;;;;6.07;2.17;;;26.80;99.90;;;;;;5035809;28;20056;-77
2023/08/11 12:28:08;;;;;;;6.70;2.40;;;26.90;99.90;;;;;;5066868;28;20060;-77
2023/08/11 12:30:34;;;;;;;4.82;2.00;;;26.90;99.90;;;;;;5015189;28;20505;-77
2023/08/11 12:33:00;;;;;;;7.20;2.40;;;26.90;99.90;;;;;;5034597;28;20044;-77
2023/08/11 12:35:26;;;;;;;5.25;2.22;;;26.90;99.90;;;;;;5020885;28;20690;-78
2023/08/11 12:37:51;;;;;;;4.75;2.17;;;26.90;99.90;;;;;;5039326;28;20041;-76
2023/08/11 12:40:18;;;;;;;5.95;2.63;;;27.00;99.90;;;;;;5035977;28;20102;-76